createdAt,value
2018-09-09T00:02:09.148Z,30.90
2018-09-09T00:04:36.809Z,30.90
2018-09-09T00:07:04.636Z,30.90
2018-09-09T00:09:37.882Z,30.90
2018-09-09T00:12:05.586Z,30.90
2018-09-09T00:14:33.252Z,30.90
2018-09-09T00:17:01.048Z,30.90
2018-09-09T00:19:28.992Z,31.40
2018-09-09T00:21:56.890Z,30.90
2018-09-09T00:24:24.523Z,30.90
2018-09-09T00:26:52.222Z,30.90
2018-09-09T00:29:19.918Z,30.90
2018-09-09T00:31:47.714Z,30.90
2018-09-09T00:34:15.360Z,30.90
2018-09-09T00:36:42.992Z,31.00
2018-09-09T00:39:10.745Z,30.90
2018-09-09T00:41:38.380Z,30.90
2018-09-09T00:44:06.048Z,30.90
2018-09-09T00:46:33.698Z,30.90
2018-09-09T00:49:06.779Z,30.90
2018-09-09T00:51:39.793Z,30.90
2018-09-09T00:54:07.468Z,31.00
2018-09-09T00:56:35.126Z,30.80
2018-09-09T00:59:02.748Z,30.90
2018-09-09T01:01:30.468Z,30.90
2018-09-09T01:03:58.106Z,30.80
2018-09-09T01:06:25.772Z,30.90
2018-09-09T01:08:53.378Z,30.90
2018-09-09T01:11:21.086Z,30.90
2018-09-09T01:13:48.712Z,30.80
2018-09-09T01:16:16.396Z,30.80
2018-09-09T01:18:44.136Z,30.80
2018-09-09T01:21:11.850Z,30.80
2018-09-09T01:23:39.547Z,30.80
2018-09-09T01:26:07.212Z,30.80
2018-09-09T01:28:34.861Z,30.80
2018-09-09T01:31:02.523Z,30.80
2018-09-09T01:33:30.226Z,30.80
2018-09-09T01:35:57.906Z,30.80
2018-09-09T01:38:25.580Z,30.80
2018-09-09T01:40:53.240Z,30.80
2018-09-09T01:43:20.928Z,30.80
2018-09-09T01:45:48.594Z,30.80
2018-09-09T01:48:16.249Z,30.80
2018-09-09T01:50:43.890Z,30.80
2018-09-09T01:53:11.632Z,30.80
2018-09-09T01:55:39.266Z,30.80
2018-09-09T01:58:06.918Z,30.80
2018-09-09T02:00:34.582Z,30.80
2018-09-09T02:03:02.258Z,31.50
2018-09-09T02:05:29.920Z,30.80
2018-09-09T02:07:57.754Z,30.80
2018-09-09T02:10:25.369Z,30.40
2018-09-09T02:12:53.256Z,30.80
2018-09-09T02:15:20.952Z,30.80
2018-09-09T02:17:48.657Z,30.80
2018-09-09T02:20:16.348Z,30.80
2018-09-09T02:22:43.980Z,30.80
2018-09-09T02:25:11.754Z,30.80
2018-09-09T02:27:39.366Z,30.80
2018-09-09T02:30:07.062Z,30.80
2018-09-09T02:32:34.784Z,30.80
2018-09-09T02:35:02.486Z,30.80
2018-09-09T02:37:30.132Z,30.80
2018-09-09T02:39:57.778Z,30.80
2018-09-09T02:42:25.446Z,30.80
2018-09-09T02:44:53.078Z,30.80
2018-09-09T02:47:20.744Z,30.80
2018-09-09T02:49:48.370Z,30.80
2018-09-09T02:52:15.989Z,30.80
2018-09-09T02:54:43.633Z,30.80
2018-09-09T02:57:11.342Z,30.80
2018-09-09T02:59:39.049Z,30.80
2018-09-09T03:02:06.774Z,30.80
2018-09-09T03:04:34.534Z,30.80
2018-09-09T03:07:02.238Z,30.80
2018-09-09T03:09:29.882Z,30.80
2018-09-09T03:11:57.516Z,30.80
2018-09-09T03:14:25.186Z,30.80
2018-09-09T03:16:52.779Z,30.80
2018-09-09T03:19:20.550Z,30.80
2018-09-09T03:21:48.248Z,30.80
2018-09-09T03:24:15.932Z,30.80
2018-09-09T03:26:43.570Z,30.80
2018-09-09T03:29:11.230Z,30.80
2018-09-09T03:31:38.900Z,30.80
2018-09-09T03:34:06.608Z,30.80
2018-09-09T03:36:34.320Z,30.70
2018-09-09T03:39:02.041Z,30.70
2018-09-09T03:41:29.700Z,30.70
2018-09-09T03:43:57.378Z,30.70
2018-09-09T03:46:25.224Z,30.80
2018-09-09T03:48:52.912Z,30.70
2018-09-09T03:51:20.598Z,30.70
2018-09-09T03:53:48.211Z,30.80
2018-09-09T03:56:15.847Z,30.70
2018-09-09T03:58:43.634Z,30.70
2018-09-09T04:01:11.368Z,30.80
2018-09-09T04:03:39.147Z,30.70
2018-09-09T04:06:06.844Z,30.80
2018-09-09T04:08:34.588Z,30.80
2018-09-09T04:11:06.506Z,30.70
2018-09-09T04:13:34.218Z,30.70
2018-09-09T04:16:01.828Z,30.70
2018-09-09T04:18:29.594Z,30.70
2018-09-09T04:20:57.246Z,30.70
2018-09-09T04:23:24.888Z,30.70
2018-09-09T04:25:52.528Z,30.70
2018-09-09T04:28:20.211Z,30.70
2018-09-09T04:30:47.898Z,30.70
2018-09-09T04:33:15.659Z,30.70
2018-09-09T04:35:43.321Z,30.70
2018-09-09T04:38:10.994Z,30.70
2018-09-09T04:40:38.629Z,30.70
2018-09-09T04:43:06.363Z,30.80
2018-09-09T04:45:33.969Z,30.70
2018-09-09T04:48:01.595Z,30.70
2018-09-09T04:50:29.291Z,31.40
2018-09-09T04:52:56.969Z,30.70
2018-09-09T04:55:24.625Z,30.70
2018-09-09T04:57:52.237Z,31.30
2018-09-09T05:00:19.985Z,30.70
2018-09-09T05:02:47.645Z,30.70
2018-09-09T05:05:15.313Z,30.70
2018-09-09T05:07:43.001Z,30.70
2018-09-09T05:10:10.748Z,30.70
2018-09-09T05:12:38.589Z,30.70
2018-09-09T05:15:06.242Z,30.70
2018-09-09T05:17:34.430Z,30.70
2018-09-09T05:20:02.101Z,30.80
2018-09-09T05:22:29.899Z,30.70
2018-09-09T05:24:57.547Z,30.70
2018-09-09T05:27:25.184Z,30.70
2018-09-09T05:29:53.058Z,30.70
2018-09-09T05:32:20.715Z,30.80
2018-09-09T05:34:48.389Z,30.70
2018-09-09T05:37:16.023Z,30.70
2018-09-09T05:39:43.673Z,30.70
2018-09-09T05:42:11.314Z,30.80
2018-09-09T05:44:39.083Z,31.30
2018-09-09T05:47:06.665Z,30.70
2018-09-09T05:49:34.300Z,31.40
2018-09-09T05:52:01.914Z,30.80
2018-09-09T05:54:29.565Z,30.70
2018-09-09T05:56:57.224Z,30.70
2018-09-09T05:59:24.941Z,30.70
2018-09-09T06:01:52.901Z,30.70
2018-09-09T06:04:20.627Z,30.70
2018-09-09T06:06:48.319Z,30.70
2018-09-09T06:09:16.009Z,30.70
2018-09-09T06:11:43.731Z,30.70
2018-09-09T06:14:11.429Z,30.70
2018-09-09T06:16:39.097Z,30.70
2018-09-09T06:19:06.789Z,30.70
2018-09-09T06:21:34.377Z,30.70
2018-09-09T06:24:02.031Z,30.80
2018-09-09T06:26:29.888Z,30.70
2018-09-09T06:28:57.604Z,30.70
2018-09-09T06:31:25.270Z,30.70
2018-09-09T06:33:52.947Z,30.70
2018-09-09T06:36:20.575Z,30.70
2018-09-09T06:38:48.471Z,30.70
2018-09-09T06:41:16.185Z,30.70
2018-09-09T06:43:43.990Z,30.70
2018-09-09T06:46:11.615Z,30.70
2018-09-09T06:48:39.243Z,30.70
2018-09-09T06:51:06.933Z,30.70
2018-09-09T06:53:34.957Z,30.80
2018-09-09T06:56:02.621Z,30.70
2018-09-09T06:58:30.417Z,30.70
2018-09-09T07:00:58.178Z,30.80
2018-09-09T07:03:25.796Z,30.70
2018-09-09T07:05:53.477Z,30.80
2018-09-09T07:08:21.158Z,30.80
2018-09-09T07:10:48.967Z,31.10
2018-09-09T07:13:16.609Z,30.70
2018-09-09T07:15:44.600Z,30.80
2018-09-09T07:18:12.315Z,30.80
2018-09-09T07:20:39.957Z,30.70
2018-09-09T07:23:07.667Z,30.80
2018-09-09T07:25:35.365Z,30.80
2018-09-09T07:28:03.049Z,30.70
2018-09-09T07:30:31.085Z,31.40
2018-09-09T07:32:58.812Z,31.20
2018-09-09T07:35:26.529Z,30.80
2018-09-09T07:37:54.651Z,31.00
2018-09-09T07:40:22.422Z,31.40
2018-09-09T07:42:50.152Z,30.70
2018-09-09T07:45:18.125Z,31.90
2018-09-09T07:47:45.806Z,30.40
2018-09-09T07:50:13.488Z,31.20
2018-09-09T07:52:41.195Z,31.10
2018-09-09T07:55:08.904Z,31.40
2018-09-09T07:57:36.657Z,30.80
2018-09-09T08:00:04.530Z,30.80
2018-09-09T08:02:32.239Z,30.80
2018-09-09T08:04:59.822Z,31.00
2018-09-09T08:07:27.628Z,30.90
2018-09-09T08:09:55.273Z,30.80
2018-09-09T08:12:22.908Z,30.80
2018-09-09T08:14:50.543Z,30.80
2018-09-09T08:17:18.252Z,31.10
2018-09-09T08:19:45.874Z,30.80
2018-09-09T08:22:13.508Z,30.80
2018-09-09T08:24:41.180Z,30.80
2018-09-09T08:27:08.840Z,31.10
2018-09-09T08:29:36.460Z,30.90
2018-09-09T08:32:04.148Z,30.90
2018-09-09T08:34:31.765Z,30.80
2018-09-09T08:36:59.429Z,30.80
2018-09-09T08:39:27.094Z,30.90
2018-09-09T08:41:54.728Z,30.80
2018-09-09T08:44:22.539Z,30.80
2018-09-09T08:46:50.248Z,30.80
2018-09-09T08:49:17.916Z,30.80
2018-09-09T08:51:45.571Z,30.80
2018-09-09T08:54:13.202Z,30.80
2018-09-09T08:56:40.959Z,30.80
2018-09-09T08:59:08.573Z,30.80
2018-09-09T09:01:36.272Z,30.80
2018-09-09T09:04:03.968Z,30.80
2018-09-09T09:06:31.716Z,31.50
2018-09-09T09:08:59.396Z,30.80
2018-09-09T09:11:27.046Z,30.80
2018-09-09T09:13:54.641Z,30.80
2018-09-09T09:16:22.322Z,30.80
2018-09-09T09:18:50.140Z,30.90
2018-09-09T09:21:17.787Z,30.80
2018-09-09T09:23:45.516Z,30.80
2018-09-09T09:26:15.974Z,30.90
2018-09-09T09:28:43.618Z,30.90
2018-09-09T09:31:11.333Z,30.90
2018-09-09T09:33:38.972Z,30.80
2018-09-09T09:36:06.653Z,30.90
2018-09-09T09:38:34.285Z,30.90
2018-09-09T09:41:02.014Z,30.90
2018-09-09T09:43:29.708Z,31.00
2018-09-09T09:45:57.332Z,31.10
2018-09-09T09:48:25.013Z,30.90
2018-09-09T09:50:52.654Z,31.00
2018-09-09T09:53:20.361Z,31.00
2018-09-09T09:55:47.933Z,32.00
2018-09-09T09:58:15.680Z,31.50
2018-09-09T10:00:48.744Z,31.40
2018-09-09T10:03:16.516Z,31.50
2018-09-09T10:05:44.138Z,31.50
2018-09-09T10:08:11.827Z,31.40
2018-09-09T10:10:39.438Z,31.60
2018-09-09T10:13:07.086Z,31.50
2018-09-09T10:15:34.811Z,31.40
2018-09-09T10:18:02.423Z,31.40
2018-09-09T10:20:30.075Z,31.30
2018-09-09T10:22:57.698Z,31.30
2018-09-09T10:25:25.363Z,31.00
2018-09-09T10:27:53.034Z,31.10
2018-09-09T10:30:20.699Z,31.30
2018-09-09T10:32:48.400Z,31.10
2018-09-09T10:35:16.131Z,31.50
2018-09-09T10:37:43.793Z,30.90
2018-09-09T10:40:11.455Z,30.80
2018-09-09T10:42:39.111Z,30.80
2018-09-09T10:45:06.855Z,30.90
2018-09-09T10:47:34.639Z,31.00
2018-09-09T10:50:02.293Z,30.90
2018-09-09T10:52:29.935Z,30.80
2018-09-09T10:54:57.567Z,30.80
2018-09-09T10:57:25.279Z,30.90
2018-09-09T10:59:52.975Z,31.00
2018-09-09T11:02:20.691Z,31.00
2018-09-09T11:04:48.467Z,30.90
2018-09-09T11:07:16.105Z,31.00
2018-09-09T11:09:43.756Z,30.80
2018-09-09T11:12:11.397Z,30.90
2018-09-09T11:14:39.032Z,31.70
2018-09-09T11:17:06.865Z,30.90
2018-09-09T11:19:34.603Z,30.90
2018-09-09T11:22:02.266Z,30.90
2018-09-09T11:24:29.958Z,30.90
2018-09-09T11:26:57.630Z,31.70
2018-09-09T11:29:25.325Z,30.90
2018-09-09T11:31:52.947Z,30.90
2018-09-09T11:34:20.602Z,30.90
2018-09-09T11:36:48.230Z,30.90
2018-09-09T11:39:15.978Z,30.90
2018-09-09T11:41:43.665Z,30.90
2018-09-09T11:44:11.371Z,30.90
2018-09-09T11:46:39.021Z,31.00
2018-09-09T11:49:06.681Z,30.90
2018-09-09T11:51:34.397Z,30.90
2018-09-09T11:54:02.087Z,30.90
2018-09-09T11:56:29.737Z,30.90
2018-09-09T11:58:59.117Z,30.90
2018-09-09T12:01:26.876Z,29.20
2018-09-09T12:03:54.561Z,29.20
2018-09-09T12:06:22.181Z,29.60
2018-09-09T12:08:50.109Z,30.20
2018-09-09T12:11:17.998Z,30.10
2018-09-09T12:13:45.747Z,29.90
2018-09-09T12:16:13.396Z,29.40
2018-09-09T12:18:41.087Z,28.20
2018-09-09T12:21:08.813Z,26.40
2018-09-09T12:23:36.636Z,26.90
2018-09-09T12:26:04.191Z,26.20
2018-09-09T12:28:31.816Z,26.10
2018-09-09T12:30:59.444Z,26.10
2018-09-09T12:33:27.291Z,24.50
2018-09-09T12:35:55.016Z,24.70
2018-09-09T12:38:22.713Z,25.30
2018-09-09T12:40:50.834Z,26.10
2018-09-09T12:43:23.838Z,24.40
2018-09-09T12:45:57.031Z,23.70
2018-09-09T12:48:30.089Z,25.10
2018-09-09T12:50:58.085Z,25.60
2018-09-09T12:53:25.777Z,26.20
2018-09-09T12:55:53.483Z,24.10
2018-09-09T12:58:21.281Z,24.80
2018-09-09T13:00:48.997Z,24.30
2018-09-09T13:03:16.778Z,23.20
2018-09-09T13:05:44.570Z,24.60
2018-09-09T13:08:12.359Z,23.50
2018-09-09T13:10:40.130Z,24.30
2018-09-09T13:13:13.274Z,23.60
2018-09-09T13:15:40.929Z,25.10
2018-09-09T13:18:08.585Z,25.30
2018-09-09T13:20:36.283Z,24.10
2018-09-09T13:23:03.921Z,22.80
2018-09-09T13:25:31.735Z,21.50
2018-09-09T13:27:59.549Z,23.30
2018-09-09T13:30:27.319Z,24.50
2018-09-09T13:32:55.091Z,23.20
2018-09-09T13:35:22.726Z,22.50
2018-09-09T13:37:50.422Z,23.80
2018-09-09T13:40:18.101Z,23.60
2018-09-09T13:42:45.757Z,24.20
2018-09-09T13:45:13.420Z,21.50
2018-09-09T13:47:41.051Z,22.90
2018-09-09T13:50:08.765Z,22.50
2018-09-09T13:52:36.383Z,21.50
2018-09-09T13:55:04.219Z,21.50
2018-09-09T13:57:31.879Z,22.30
2018-09-09T13:59:59.594Z,22.20
2018-09-09T14:02:27.241Z,21.50
2018-09-09T14:04:54.863Z,21.50
2018-09-09T14:07:22.770Z,21.60
2018-09-09T14:09:50.587Z,22.30
2018-09-09T14:12:18.230Z,22.90
2018-09-09T14:14:46.064Z,23.90
2018-09-09T14:17:13.710Z,23.90
2018-09-09T14:19:41.529Z,23.70
2018-09-09T14:22:09.190Z,23.80
2018-09-09T14:24:36.916Z,23.30
2018-09-09T14:27:04.546Z,29.40
2018-09-09T14:29:32.346Z,26.50
2018-09-09T14:31:59.992Z,25.40
2018-09-09T14:34:27.665Z,24.40
2018-09-09T14:36:55.378Z,21.90
2018-09-09T14:39:23.032Z,23.30
2018-09-09T14:41:50.771Z,23.30
2018-09-09T14:44:18.512Z,23.60
2018-09-09T14:46:46.212Z,23.10
2018-09-09T14:49:13.917Z,22.90
2018-09-09T14:51:42.114Z,22.40
2018-09-09T14:54:09.767Z,23.30
2018-09-09T14:56:37.462Z,23.60
2018-09-09T14:59:05.109Z,23.80
2018-09-09T15:01:32.860Z,21.70
2018-09-09T15:04:00.453Z,23.30
2018-09-09T15:06:28.105Z,21.70
2018-09-09T15:08:55.757Z,22.60
2018-09-09T15:11:23.472Z,23.60
2018-09-09T15:13:51.240Z,23.50
2018-09-09T15:16:18.988Z,23.80
2018-09-09T15:18:46.654Z,24.00
2018-09-09T15:21:14.465Z,24.10
2018-09-09T15:23:42.112Z,23.80
2018-09-09T15:26:09.790Z,23.90
2018-09-09T15:28:38.460Z,22.70
2018-09-09T15:31:06.085Z,23.80
2018-09-09T15:33:33.724Z,24.10
2018-09-09T15:36:01.398Z,24.30
2018-09-09T15:38:29.125Z,24.10
2018-09-09T15:40:56.755Z,21.60
2018-09-09T15:43:24.517Z,21.60
2018-09-09T15:45:52.173Z,21.70
2018-09-09T15:48:19.880Z,21.70
2018-09-09T15:50:47.711Z,21.70
2018-09-09T15:53:15.421Z,21.60
2018-09-09T15:55:43.073Z,22.10
2018-09-09T15:58:10.813Z,21.60
2018-09-09T16:00:38.497Z,21.60
2018-09-09T16:03:06.719Z,22.90
2018-09-09T16:05:34.415Z,21.60
2018-09-09T16:08:02.071Z,23.10
2018-09-09T16:10:29.808Z,24.10
2018-09-09T16:12:57.611Z,22.80
2018-09-09T16:15:25.405Z,24.70
2018-09-09T16:17:53.042Z,24.10
2018-09-09T16:20:20.813Z,24.60
2018-09-09T16:22:48.840Z,24.90
2018-09-09T16:25:16.610Z,25.10
2018-09-09T16:27:44.257Z,25.20
2018-09-09T16:30:12.248Z,25.60
2018-09-09T16:32:40.129Z,25.90
2018-09-09T16:35:07.853Z,25.80
2018-09-09T16:37:35.607Z,25.30
2018-09-09T16:40:03.273Z,25.30
2018-09-09T16:42:31.189Z,25.00
2018-09-09T16:44:59.037Z,24.30
2018-09-09T16:47:26.677Z,24.10
2018-09-09T16:49:54.368Z,24.80
2018-09-09T16:52:22.112Z,24.20
2018-09-09T16:54:49.719Z,24.70
2018-09-09T16:57:17.379Z,24.50
2018-09-09T16:59:45.037Z,24.80
2018-09-09T17:02:12.728Z,24.90
2018-09-09T17:04:40.394Z,25.00
2018-09-09T17:07:08.091Z,24.90
2018-09-09T17:09:35.740Z,24.80
2018-09-09T17:12:03.679Z,24.10
2018-09-09T17:14:31.312Z,24.50
2018-09-09T17:16:58.928Z,24.80
2018-09-09T17:19:26.626Z,25.40
2018-09-09T17:21:54.562Z,26.20
2018-09-09T17:24:22.322Z,26.20
2018-09-09T17:26:50.014Z,26.20
2018-09-09T17:29:17.701Z,26.20
2018-09-09T17:31:45.362Z,26.20
2018-09-09T17:34:13.052Z,26.10
2018-09-09T17:36:40.770Z,26.20
2018-09-09T17:39:09.456Z,26.30
2018-09-09T17:41:38.198Z,26.30
2018-09-09T17:44:05.891Z,26.30
2018-09-09T17:46:33.614Z,26.30
2018-09-09T17:49:01.334Z,26.90
2018-09-09T17:51:29.288Z,26.30
2018-09-09T17:53:56.967Z,26.30
2018-09-09T17:56:24.612Z,26.30
2018-09-09T17:58:52.330Z,26.20
2018-09-09T18:01:20.110Z,26.30
2018-09-09T18:03:47.769Z,26.20
2018-09-09T18:06:15.418Z,26.80
2018-09-09T18:08:43.346Z,26.20
2018-09-09T18:11:11.238Z,26.20
2018-09-09T18:13:38.856Z,26.20
2018-09-09T18:16:06.708Z,26.20
2018-09-09T18:18:34.335Z,26.20
2018-09-09T18:21:02.036Z,26.20
2018-09-09T18:23:29.700Z,26.10
2018-09-09T18:25:57.663Z,26.20
2018-09-09T18:28:25.440Z,26.10
2018-09-09T18:30:53.052Z,26.10
2018-09-09T18:33:20.778Z,26.10
2018-09-09T18:35:48.557Z,26.10
2018-09-09T18:38:16.189Z,26.10
2018-09-09T18:40:43.848Z,26.00
2018-09-09T18:43:11.622Z,26.00
2018-09-09T18:45:39.309Z,25.90
2018-09-09T18:48:07.057Z,26.20
2018-09-09T18:50:34.722Z,26.80
2018-09-09T18:53:02.452Z,26.50
2018-09-09T18:55:31.169Z,26.10
2018-09-09T18:57:58.945Z,26.30
2018-09-09T19:00:26.558Z,26.00
2018-09-09T19:02:54.372Z,26.40
2018-09-09T19:05:22.044Z,26.50
2018-09-09T19:07:49.789Z,26.30
2018-09-09T19:10:17.419Z,26.90
2018-09-09T19:12:45.369Z,26.90
2018-09-09T19:15:13.498Z,27.20
2018-09-09T19:17:41.196Z,27.90
2018-09-09T19:20:08.814Z,26.90
2018-09-09T19:22:36.485Z,26.90
2018-09-09T19:25:04.263Z,27.50
2018-09-09T19:27:31.900Z,27.40
2018-09-09T19:29:59.707Z,27.00
2018-09-09T19:32:27.342Z,27.10
2018-09-09T19:34:55.238Z,27.60
2018-09-09T19:37:22.955Z,27.40
2018-09-09T19:39:50.581Z,27.30
2018-09-09T19:42:18.370Z,27.30
2018-09-09T19:44:46.041Z,27.30
2018-09-09T19:47:13.735Z,27.70
2018-09-09T19:49:41.397Z,27.90
2018-09-09T19:52:09.072Z,27.30
2018-09-09T19:54:36.680Z,27.70
2018-09-09T19:57:04.826Z,28.00
2018-09-09T19:59:32.477Z,27.70
2018-09-09T20:02:00.100Z,27.70
2018-09-09T20:04:27.767Z,28.20
2018-09-09T20:06:55.409Z,27.90
2018-09-09T20:09:23.177Z,28.20
2018-09-09T20:11:50.940Z,28.20
2018-09-09T20:14:18.541Z,27.90
2018-09-09T20:16:46.209Z,28.10
2018-09-09T20:19:13.816Z,27.60
2018-09-09T20:21:41.430Z,27.70
2018-09-09T20:24:09.099Z,27.80
2018-09-09T20:26:36.798Z,27.70
2018-09-09T20:29:05.439Z,27.90
2018-09-09T20:31:33.136Z,27.90
2018-09-09T20:34:00.815Z,27.90
2018-09-09T20:36:28.562Z,28.10
2018-09-09T20:38:56.187Z,28.00
2018-09-09T20:41:23.841Z,28.30
2018-09-09T20:43:51.457Z,28.50
2018-09-09T20:46:19.499Z,28.10
2018-09-09T20:48:47.269Z,28.30
2018-09-09T20:51:14.981Z,28.20
2018-09-09T20:53:42.673Z,28.40
2018-09-09T20:56:10.331Z,28.60
2018-09-09T20:58:37.985Z,28.60
2018-09-09T21:01:05.620Z,29.20
2018-09-09T21:03:33.538Z,29.40
2018-09-09T21:06:01.219Z,29.60
2018-09-09T21:08:28.869Z,29.70
2018-09-09T21:10:56.590Z,30.10
2018-09-09T21:13:24.211Z,29.80
2018-09-09T21:15:51.865Z,30.00
2018-09-09T21:18:19.534Z,29.90
2018-09-09T21:20:47.200Z,29.80
2018-09-09T21:23:14.831Z,30.00
2018-09-09T21:25:42.459Z,29.90
2018-09-09T21:28:10.149Z,29.80
2018-09-09T21:30:37.756Z,29.90
2018-09-09T21:33:05.661Z,30.00
2018-09-09T21:35:33.300Z,30.10
2018-09-09T21:38:00.961Z,30.20
2018-09-09T21:40:28.572Z,30.30
2018-09-09T21:42:56.184Z,30.20
2018-09-09T21:45:23.871Z,30.30
2018-09-09T21:47:51.494Z,30.20
2018-09-09T21:50:19.188Z,30.60
2018-09-09T21:52:46.835Z,30.40
2018-09-09T21:55:14.489Z,30.60
2018-09-09T21:57:42.327Z,30.50
2018-09-09T22:00:10.904Z,30.70
2018-09-09T22:02:39.649Z,30.70
2018-09-09T22:05:07.355Z,30.70
2018-09-09T22:07:35.526Z,30.70
2018-09-09T22:10:03.232Z,30.70
2018-09-09T22:12:30.909Z,30.70
2018-09-09T22:14:58.530Z,30.70
2018-09-09T22:17:26.305Z,30.70
2018-09-09T22:19:54.037Z,31.40
2018-09-09T22:22:21.700Z,30.70
2018-09-09T22:24:49.462Z,30.80
2018-09-09T22:27:17.140Z,30.80
2018-09-09T22:29:44.873Z,30.80
2018-09-09T22:32:12.592Z,30.70
2018-09-09T22:34:40.264Z,30.80
2018-09-09T22:37:07.918Z,30.70
2018-09-09T22:39:36.167Z,30.70
2018-09-09T22:42:03.844Z,30.70
2018-09-09T22:44:31.542Z,30.70
2018-09-09T22:46:59.126Z,30.70
2018-09-09T22:49:26.796Z,30.70
2018-09-09T22:51:54.524Z,31.50
2018-09-09T22:54:22.213Z,30.80
2018-09-09T22:56:49.868Z,30.70
2018-09-09T22:59:17.640Z,30.70
2018-09-09T23:01:45.416Z,30.70
2018-09-09T23:04:13.128Z,30.70
2018-09-09T23:06:40.853Z,30.80
2018-09-09T23:09:09.765Z,30.70
2018-09-09T23:11:37.411Z,30.70
2018-09-09T23:14:05.105Z,30.70
2018-09-09T23:16:34.894Z,30.70
2018-09-09T23:19:02.581Z,30.70
2018-09-09T23:21:30.285Z,30.70
2018-09-09T23:23:58.164Z,30.70
2018-09-09T23:26:25.850Z,30.80
2018-09-09T23:28:53.508Z,30.80
2018-09-09T23:31:21.148Z,30.70
2018-09-09T23:33:48.772Z,30.70
2018-09-09T23:36:16.375Z,30.80
2018-09-09T23:38:44.162Z,30.70
2018-09-09T23:41:11.792Z,30.80
2018-09-09T23:43:39.539Z,30.70
2018-09-09T23:46:07.158Z,30.80
2018-09-09T23:48:34.995Z,30.80
2018-09-09T23:51:02.646Z,30.70
2018-09-09T23:53:30.295Z,30.70
2018-09-09T23:55:58.295Z,30.80
2018-09-09T23:58:25.940Z,30.70
